Time;durP1;ratioP1;P1;durP2;ratioP2;P2;SDS_P1;SDS_P2;PMS_P1;PMS_P2;Temp;Humidity;BMP_temperature;BMP_pressure;BME280_temperature;BME280_humidity;BME280_pressure;Samples;Min_cycle;Max_cycle;Signal;HPM_P1;HPM_P2
2021/06/03 00:01:30;;;;;;;8.45;6.40;;;;;;;13.93;85.80;97260.47;4963786;28;20093;-62
2021/06/03 00:03:56;;;;;;;7.85;5.63;;;;;;;14.03;85.44;97268.94;4966047;28;21204;-59
2021/06/03 00:06:21;;;;;;;7.20;5.70;;;;;;;14.06;85.05;97267.34;4964342;28;20046;-60
2021/06/03 00:08:47;;;;;;;6.50;5.90;;;;;;;14.06;84.84;97257.03;4964549;28;20481;-63
2021/06/03 00:11:13;;;;;;;6.20;5.00;;;;;;;13.94;83.42;97243.38;4965803;28;20046;-60
2021/06/03 00:13:43;;;;;;;7.88;5.20;;;;;;;13.88;84.76;97233.03;4966155;28;20037;-60
2021/06/03 00:16:13;;;;;;;7.18;5.25;;;;;;;14.00;83.98;97254.97;4965773;28;20042;-60
2021/06/03 00:18:40;;;;;;;5.72;5.15;;;;;;;13.99;84.34;97248.59;4965171;28;20581;-60
2021/06/03 00:21:06;;;;;;;5.43;4.93;;;;;;;14.06;84.02;97250.63;4963629;28;20134;-60
2021/06/03 00:23:32;;;;;;;5.78;4.72;;;;;;;13.93;83.32;97268.84;4965850;28;20114;-60
2021/06/03 00:25:57;;;;;;;7.82;5.30;;;;;;;13.79;85.09;97269.53;4965656;28;20055;-61
2021/06/03 00:28:23;;;;;;;6.50;5.00;;;;;;;12.64;86.07;97086.50;4965401;28;20138;-63
2021/06/03 00:30:49;;;;;;;5.28;4.78;;;;;;;13.79;85.64;97246.47;4964972;28;20046;-60
2021/06/03 00:33:15;;;;;;;11.93;5.22;;;;;;;13.18;86.17;97167.25;4965379;28;20031;-62
2021/06/03 00:35:41;;;;;;;6.07;5.30;;;;;;;13.60;87.25;97242.75;4964946;28;20046;-60
2021/06/03 00:38:07;;;;;;;8.18;4.82;;;;;;;13.61;87.33;97246.31;4965197;28;20027;-60
2021/06/03 00:40:32;;;;;;;9.02;5.80;;;;;;;10.64;85.52;96767.97;4964566;28;20069;-60
2021/06/03 00:42:58;;;;;;;5.50;5.00;;;;;;;13.50;85.79;97245.41;4965294;28;20110;-60
2021/06/03 00:45:28;;;;;;;9.88;6.97;;;;;;;13.23;89.37;97242.00;4965220;28;20497;-60
2021/06/03 00:47:55;;;;;;;34.92;15.95;;;;;;;13.45;89.54;97249.34;4963411;28;20034;-60
2021/06/03 00:50:30;;;;;;;12.77;8.18;;;;;;;12.86;91.96;97224.50;4963143;28;20046;-59
2021/06/03 00:52:55;;;;;;;8.98;6.50;;;;;;;12.82;93.76;97237.56;4963307;28;20034;-60
2021/06/03 00:55:22;;;;;;;10.77;7.70;;;;;;;12.44;94.27;97232.31;4963354;28;20307;-59
2021/06/03 00:57:47;;;;;;;10.40;7.18;;;;;;;13.17;92.87;97243.53;4963513;28;20145;-60
2021/06/03 01:00:15;;;;;;;13.85;7.68;;;;;;;13.09;92.43;97219.59;4964506;28;20563;-60
2021/06/03 01:02:41;;;;;;;9.50;6.00;;;;;;;12.90;91.48;97200.31;4963469;28;20035;-62
2021/06/03 01:05:10;;;;;;;7.13;5.78;;;;;;;13.30;91.38;97253.22;4963300;28;20037;-60
2021/06/03 01:07:36;;;;;;;6.75;5.07;;;;;;;12.86;90.03;97165.31;4964874;28;20041;-62
2021/06/03 01:10:10;;;;;;;11.68;5.50;;;;;;;13.27;88.68;97225.34;4963044;28;20035;-60
2021/06/03 01:12:56;;;;;;;5.78;5.28;;;;;;;13.30;88.10;97244.88;4965059;28;20139;-60
2021/06/03 01:15:24;;;;;;;10.48;5.13;;;;;;;12.67;88.98;97185.78;4964467;28;20046;-60
2021/06/03 01:17:50;;;;;;;8.32;5.95;;;;;;;13.20;89.83;97253.91;4964557;28;20630;-59
2021/06/03 01:20:18;;;;;;;10.35;5.82;;;;;;;12.90;90.36;97211.44;4952324;28;20078;-60
2021/06/03 01:23:04;;;;;;;6.85;5.43;;;;;;;13.10;90.35;97249.00;4963242;28;20039;-61
2021/06/03 01:25:30;;;;;;;6.50;5.47;;;;;;;13.07;90.50;97252.56;4964309;28;20050;-59
2021/06/03 01:27:56;;;;;;;8.77;5.43;;;;;;;13.01;91.28;97251.31;4963270;28;20186;-60
2021/06/03 01:30:25;;;;;;;7.07;5.50;;;;;;;13.02;91.00;97258.50;4962919;28;20150;-60
2021/06/03 01:33:01;;;;;;;6.80;5.13;;;;;;;12.83;91.86;97253.06;4964192;28;20031;-59
2021/06/03 01:35:33;;;;;;;6.63;5.22;;;;;;;12.73;92.25;97245.41;4964862;28;20070;-59
2021/06/03 01:37:59;;;;;;;6.32;5.72;;;;;;;12.73;91.70;97234.28;4964656;28;20494;-59
2021/06/03 01:40:27;;;;;;;5.32;4.82;;;;;;;12.74;91.79;97257.34;4963039;28;20105;-60
2021/06/03 01:42:53;;;;;;;5.32;4.82;;;;;;;12.79;90.52;97259.75;4964979;28;20657;-59
2021/06/03 01:45:19;;;;;;;7.90;5.18;;;;;;;12.50;91.25;97236.41;4962564;28;20039;-60
2021/06/03 01:47:45;;;;;;;5.60;5.05;;;;;;;12.49;92.70;97257.00;4964350;28;20523;-59
2021/06/03 01:50:12;;;;;;;10.68;5.40;;;;;;;12.45;92.92;97250.63;4962593;28;20038;-60
2021/06/03 01:52:39;;;;;;;8.60;4.80;;;;;;;11.95;92.22;97153.91;4967277;28;20527;-61
2021/06/03 01:55:09;;;;;;;9.02;5.28;;;;;;;12.00;91.16;97167.47;4968093;28;20027;-60
2021/06/03 01:57:36;;;;;;;7.00;4.90;;;;;;;12.51;91.46;97251.88;4966687;28;20046;-59
2021/06/03 02:00:08;;;;;;;5.43;4.93;;;;;;;12.40;92.87;97242.59;4972192;28;20038;-59
2021/06/03 02:02:34;;;;;;;5.88;5.35;;;;;;;12.23;94.03;97248.72;4986366;28;20176;-60
2021/06/03 02:04:59;;;;;;;6.35;5.43;;;;;;;12.33;92.96;97242.50;4987316;28;20520;-60
2021/06/03 02:07:25;;;;;;;8.23;5.63;;;;;;;11.68;92.68;97160.72;4985538;28;20042;-60
2021/06/03 02:09:50;;;;;;;8.32;5.82;;;;;;;12.26;93.62;97247.97;4985826;28;20548;-60
2021/06/03 02:12:18;;;;;;;9.52;5.72;;;;;;;12.29;92.56;97247.22;4985399;28;20454;-60
2021/06/03 02:14:45;;;;;;;8.80;5.85;;;;;;;11.25;93.17;97108.50;4986992;28;20062;-59
2021/06/03 02:17:19;;;;;;;7.50;5.32;;;;;;;12.26;92.29;97264.66;4986620;28;20082;-61
2021/06/03 02:19:59;;;;;;;9.88;5.82;;;;;;;11.44;94.29;97188.84;4987360;28;20039;-61
2021/06/03 02:22:26;;;;;;;7.30;5.45;;;;;;;12.02;94.02;97270.63;4987296;28;20045;-60
2021/06/03 02:24:52;;;;;;;9.25;5.53;;;;;;;12.07;93.30;97262.00;4987180;28;20060;-60
2021/06/03 02:27:20;;;;;;;7.38;5.28;;;;;;;11.68;93.14;97211.44;4986804;28;20042;-60
2021/06/03 02:29:46;;;;;;;5.78;5.28;;;;;;;11.97;92.60;97245.97;4987026;28;20045;-61
2021/06/03 02:32:15;;;;;;;7.13;5.72;;;;;;;11.85;93.49;97232.31;4985010;28;20571;-59
2021/06/03 02:34:42;;;;;;;13.35;9.23;;;;;;;11.99;94.63;97260.28;4986755;28;20110;-61
2021/06/03 02:37:12;;;;;;;15.82;13.82;;;;;;;11.91;94.96;97259.38;4984321;28;20034;-59
2021/06/03 02:39:37;;;;;;;17.88;11.88;;;;;;;11.99;94.47;97255.53;4985359;28;20043;-59
2021/06/03 02:42:05;;;;;;;15.38;11.07;;;;;;;11.80;94.50;97246.50;4987004;28;20040;-60
2021/06/03 02:44:35;;;;;;;16.95;11.02;;;;;;;11.84;94.24;97264.00;4986807;28;20038;-62
2021/06/03 02:47:01;;;;;;;17.27;12.05;;;;;;;11.57;95.82;97263.16;4986106;28;20046;-59
2021/06/03 02:49:27;;;;;;;23.20;14.02;;;;;;;11.78;93.89;97257.16;4986306;28;20042;-58
2021/06/03 02:51:52;;;;;;;34.33;15.27;;;;;;;11.68;94.61;97266.16;4986410;28;20041;-62
2021/06/03 02:54:18;;;;;;;27.95;14.40;;;;;;;11.67;94.33;97265.34;4975308;28;20038;-59
2021/06/03 02:56:44;;;;;;;21.92;12.57;;;;;;;11.37;94.56;97208.13;4962279;28;20191;-59
2021/06/03 02:59:09;;;;;;;20.98;11.25;;;;;;;11.82;93.80;97260.81;4954796;28;20418;-58
2021/06/03 03:01:35;;;;;;;14.73;8.20;;;;;;;11.80;93.75;97252.06;4956138;28;20418;-60
2021/06/03 03:04:00;;;;;;;11.00;7.03;;;;;;;11.78;93.44;97251.63;4956350;28;20529;-59
2021/06/03 03:06:25;;;;;;;8.43;6.38;;;;;;;11.42;92.15;97178.09;4955597;28;20173;-59
2021/06/03 03:08:51;;;;;;;8.77;6.03;;;;;;;11.89;90.93;97272.00;4956840;28;20070;-61
2021/06/03 03:11:17;;;;;;;12.07;6.43;;;;;;;11.73;92.70;97260.25;4965885;28;20038;-59
2021/06/03 03:13:42;;;;;;;8.35;6.30;;;;;;;11.37;92.16;97203.38;4976580;28;20035;-61
2021/06/03 03:16:08;;;;;;;11.55;6.25;;;;;;;11.65;92.89;97272.44;4974655;28;20074;-58
2021/06/03 03:18:35;;;;;;;8.80;6.45;;;;;;;11.41;92.69;97240.28;4974943;28;20054;-58
2021/06/03 03:21:07;;;;;;;9.82;7.22;;;;;;;11.56;92.29;97252.41;4974508;28;20031;-59
2021/06/03 03:23:33;;;;;;;10.18;6.65;;;;;;;11.12;91.77;97195.81;4972327;28;20319;-59
2021/06/03 03:25:59;;;;;;;10.45;6.38;;;;;;;11.76;91.68;97279.75;4974000;28;20607;-58
2021/06/03 03:28:24;;;;;;;11.88;6.47;;;;;;;11.86;91.09;97267.22;4975390;28;20042;-59
2021/06/03 03:30:51;;;;;;;8.80;6.47;;;;;;;11.95;90.87;97264.97;4972788;28;20034;-58
2021/06/03 03:33:17;;;;;;;8.05;5.95;;;;;;;11.97;89.22;97257.06;4974057;28;20085;-58
2021/06/03 03:35:47;;;;;;;16.08;6.75;;;;;;;11.73;90.15;97240.84;4974317;28;20493;-59
2021/06/03 03:38:18;;;;;;;8.60;5.95;;;;;;;11.81;89.12;97242.53;4972805;28;20046;-60
2021/06/03 03:40:44;;;;;;;25.40;11.15;;;;;;;11.30;92.76;97277.34;4973099;28;20501;-58
2021/06/03 03:43:09;;;;;;;12.77;7.15;;;;;;;10.81;94.82;97232.06;4976365;28;20494;-59
2021/06/03 03:45:35;;;;;;;18.75;9.70;;;;;;;11.48;94.64;97278.44;4973146;28;20053;-59
2021/06/03 03:48:03;;;;;;;13.05;7.45;;;;;;;11.66;93.02;97274.03;4974872;28;20030;-59
2021/06/03 03:50:33;;;;;;;10.93;6.25;;;;;;;11.92;90.23;97296.25;4974152;28;20045;-60
2021/06/03 03:52:59;;;;;;;12.68;7.25;;;;;;;12.05;89.20;97287.34;4974826;28;20058;-60
2021/06/03 03:55:25;;;;;;;11.45;6.13;;;;;;;12.18;87.85;97279.59;4984934;28;20524;-60
2021/06/03 03:57:51;;;;;;;7.53;5.63;;;;;;;12.17;86.94;97278.00;4985390;28;20437;-59
2021/06/03 04:00:20;;;;;;;6.90;5.43;;;;;;;12.37;86.02;97270.34;4985011;28;20057;-58
2021/06/03 04:02:46;;;;;;;6.80;5.88;;;;;;;12.39;83.89;97257.69;4986343;28;20552;-58
2021/06/03 04:05:12;;;;;;;6.22;5.18;;;;;;;12.72;83.18;97282.72;4984619;28;20088;-59
2021/06/03 04:07:38;;;;;;;8.15;6.03;;;;;;;12.34;83.74;97213.56;4983660;28;20042;-60
2021/06/03 04:10:08;;;;;;;8.30;7.32;;;;;;;12.85;83.76;97278.50;4985272;28;20092;-67
2021/06/03 04:12:33;;;;;;;9.57;6.70;;;;;;;12.82;82.42;97295.16;4985236;28;20287;-68
2021/06/03 04:14:59;;;;;;;9.60;6.72;;;;;;;12.76;83.01;97300.25;4982688;28;20033;-67
2021/06/03 04:17:24;;;;;;;8.90;6.50;;;;;;;12.94;82.32;97275.44;4983001;28;20070;-68
2021/06/03 04:19:50;;;;;;;9.38;6.43;;;;;;;13.20;80.58;97273.38;4983279;28;20037;-68
2021/06/03 04:22:15;;;;;;;12.15;5.90;;;;;;;13.00;80.15;97233.03;4983657;28;20328;-67
2021/06/03 04:24:40;;;;;;;6.68;5.95;;;;;;;13.30;79.43;97244.88;4984143;28;20042;-59
2021/06/03 04:27:07;;;;;;;6.72;5.93;;;;;;;13.95;78.29;97302.69;4984084;28;20030;-60
2021/06/03 04:29:32;;;;;;;9.80;6.40;;;;;;;14.22;76.21;97304.09;4985125;28;20065;-60
2021/06/03 04:31:58;;;;;;;9.30;5.88;;;;;;;14.38;75.14;97307.41;4984623;28;20498;-60
2021/06/03 04:34:23;;;;;;;9.68;6.43;;;;;;;14.58;73.54;97311.50;4984554;28;20040;-61
2021/06/03 04:36:49;;;;;;;6.13;5.53;;;;;;;14.77;73.58;97302.84;4984500;28;20034;-60
2021/06/03 04:39:14;;;;;;;7.15;5.53;;;;;;;14.80;71.87;97274.16;4984642;28;20046;-60
2021/06/03 04:41:40;;;;;;;7.60;5.70;;;;;;;15.26;70.70;97328.16;4984120;28;20413;-61
2021/06/03 04:44:05;;;;;;;7.25;5.70;;;;;;;15.33;71.72;97303.06;4985019;28;20065;-60
2021/06/03 04:46:31;;;;;;;7.05;4.93;;;;;;;15.21;70.72;97267.13;4981946;28;20038;-61
2021/06/03 04:48:57;;;;;;;7.15;4.93;;;;;;;15.76;69.56;97318.72;4981877;28;20204;-60
2021/06/03 04:51:22;;;;;;;6.45;5.47;;;;;;;16.08;67.85;97316.75;4981450;28;20588;-63
2021/06/03 04:53:48;;;;;;;6.15;5.40;;;;;;;15.60;67.50;97239.31;4971767;28;20043;-60
2021/06/03 04:56:13;;;;;;;9.75;5.80;;;;;;;16.27;67.90;97307.16;4963609;28;20435;-62
2021/06/03 04:58:39;;;;;;;11.30;5.93;;;;;;;16.71;67.19;97298.31;4962481;28;20051;-62
2021/06/03 05:01:04;;;;;;;10.98;6.28;;;;;;;16.91;65.60;97305.03;4962042;28;20029;-62
2021/06/03 05:03:29;;;;;;;12.85;6.38;;;;;;;17.15;64.05;97312.56;4963942;28;20038;-60
2021/06/03 05:05:55;;;;;;;6.97;6.20;;;;;;;17.24;65.11;97298.91;4964295;28;20181;-61
2021/06/03 05:08:21;;;;;;;8.07;6.47;;;;;;;17.40;65.71;97318.81;4963266;28;20106;-61
2021/06/03 05:10:46;;;;;;;10.75;5.88;;;;;;;17.55;64.86;97292.34;4963072;28;20121;-63
2021/06/03 05:13:12;;;;;;;9.95;5.80;;;;;;;17.74;64.27;97300.22;4963456;28;20031;-60
2021/06/03 05:15:38;;;;;;;9.05;5.40;;;;;;;17.65;63.30;97297.09;4964263;28;20511;-62
2021/06/03 05:18:03;;;;;;;6.88;5.90;;;;;;;17.86;62.89;97291.34;4963320;28;20051;-61
2021/06/03 05:20:30;;;;;;;9.55;6.82;;;;;;;18.06;62.63;97307.19;4964099;28;20045;-61
2021/06/03 05:22:58;;;;;;;6.80;6.10;;;;;;;18.01;60.62;97267.59;4963651;28;20034;-60
2021/06/03 05:25:26;;;;;;;5.72;5.13;;;;;;;18.33;57.32;97301.75;4969691;28;20549;-61
2021/06/03 05:27:52;;;;;;;6.00;4.85;;;;;;;18.46;56.80;97286.03;4976836;28;20041;-60
2021/06/03 05:30:20;;;;;;;6.47;4.93;;;;;;;18.76;55.50;97300.13;4977401;28;20038;-61
2021/06/03 05:32:45;;;;;;;7.57;5.50;;;;;;;18.88;55.81;97302.41;4973629;28;20595;-59
2021/06/03 05:35:14;;;;;;;6.60;5.03;;;;;;;19.08;52.32;97299.75;4975219;28;20030;-59
2021/06/03 05:37:40;;;;;;;6.32;5.03;;;;;;;19.14;53.74;97292.47;4967122;28;20038;-60
2021/06/03 05:40:10;;;;;;;5.15;4.60;;;;;;;19.33;50.46;97295.44;4983209;28;20035;-62
2021/06/03 05:42:35;;;;;;;4.85;4.32;;;;;;;19.24;48.01;97303.56;4968128;28;20473;-61
2021/06/03 05:45:02;;;;;;;8.35;4.88;;;;;;;16.98;49.49;96960.78;4967512;28;20019;-62
2021/06/03 05:47:27;;;;;;;8.18;5.53;;;;;;;18.95;51.16;97262.22;4967232;28;20050;-61
2021/06/03 05:49:53;;;;;;;5.90;4.68;;;;;;;18.45;53.67;97205.88;4960817;28;20035;-63
2021/06/03 05:52:18;;;;;;;10.15;4.90;;;;;;;19.17;50.19;97320.50;4957653;28;20063;-66
2021/06/03 05:54:44;;;;;;;7.43;5.22;;;;;;;19.18;47.39;97268.75;4962973;28;20502;-64
2021/06/03 05:57:09;;;;;;;6.13;4.30;;;;;;;19.19;45.55;97266.75;4964694;28;20023;-65
2021/06/03 05:59:35;;;;;;;5.72;4.07;;;;;;;16.95;45.02;96936.41;4967378;28;20034;-58
2021/06/03 06:02:04;;;;;;;7.88;5.22;;;;;;;19.25;46.68;97293.91;4967339;28;20034;-67
2021/06/03 06:06:55;;;;;;;7.32;4.57;;;;;;;19.08;45.69;97286.53;4966075;28;20034;-59
2021/06/03 06:09:21;;;;;;;4.72;4.18;;;;;;;18.81;45.40;97251.97;4967151;28;20569;-60
2021/06/03 06:11:47;;;;;;;4.65;4.25;;;;;;;19.14;45.40;97293.25;4965400;28;20153;-71
2021/06/03 06:14:13;;;;;;;4.03;3.72;;;;;;;19.50;45.13;97322.53;4967519;28;20118;-67
2021/06/03 06:16:39;;;;;;;5.20;4.50;;;;;;;19.33;43.51;97323.53;4967799;28;20038;-69
2021/06/03 06:19:10;;;;;;;5.90;4.95;;;;;;;19.58;44.57;97324.00;4962031;28;20081;-69
2021/06/03 06:21:36;;;;;;;7.00;4.80;;;;;;;18.69;45.68;97182.34;4966889;28;20027;-70
2021/06/03 06:24:03;;;;;;;4.70;4.03;;;;;;;19.49;45.27;97309.69;4960622;28;20041;-71
2021/06/03 06:26:29;;;;;;;5.72;4.55;;;;;;;17.81;43.97;96983.53;4959882;28;20474;-63
2021/06/03 06:28:56;;;;;;;6.60;3.97;;;;;;;19.82;44.11;97293.97;4964582;28;20034;-61
2021/06/03 06:31:23;;;;;;;5.68;4.78;;;;;;;20.25;42.65;97337.09;4965513;28;20510;-69
2021/06/03 06:33:48;;;;;;;7.00;4.38;;;;;;;20.36;42.38;97331.31;4965737;28;20035;-66
2021/06/03 06:36:15;;;;;;;4.75;4.45;;;;;;;19.90;43.54;97264.50;4965404;28;20058;-70
2021/06/03 06:38:42;;;;;;;7.80;5.00;;;;;;;20.31;43.06;97337.41;4965446;28;20816;-62
2021/06/03 06:41:08;;;;;;;5.25;4.30;;;;;;;20.45;42.93;97337.19;4966909;28;20466;-59
2021/06/03 06:43:35;;;;;;;4.85;4.35;;;;;;;20.60;42.96;97338.50;4965928;28;20035;-69
2021/06/03 06:46:02;;;;;;;6.45;4.57;;;;;;;20.70;41.50;97331.91;4965719;28;20035;-60
2021/06/03 06:48:27;;;;;;;6.78;4.38;;;;;;;20.52;41.26;97292.00;4966987;28;20057;-60
2021/06/03 06:50:53;;;;;;;7.43;5.30;;;;;;;20.30;42.33;97268.28;4966575;28;20042;-69
2021/06/03 06:53:20;;;;;;;5.28;4.78;;;;;;;20.76;42.53;97325.34;4966204;28;20114;-65
2021/06/03 06:55:46;;;;;;;14.82;4.47;;;;;;;20.59;41.04;97348.19;4971202;28;20128;-69
2021/06/03 06:58:12;;;;;;;5.43;4.15;;;;;;;18.74;40.24;97066.81;4967368;28;20501;-69
2021/06/03 07:00:39;;;;;;;6.63;4.45;;;;;;;20.22;40.51;97252.75;4956643;28;20050;-64
2021/06/03 07:03:09;;;;;;;5.35;4.28;;;;;;;20.93;40.95;97334.69;4966383;28;20398;-63
2021/06/03 07:05:41;;;;;;;5.57;4.65;;;;;;;20.42;39.55;97270.50;4963993;28;20128;-61
2021/06/03 07:08:07;;;;;;;4.75;4.28;;;;;;;21.12;39.26;97325.47;4964978;28;20038;-57
2021/06/03 07:10:32;;;;;;;4.93;4.50;;;;;;;20.69;40.73;97260.72;4955020;28;20043;-61
2021/06/03 07:12:58;;;;;;;5.70;4.20;;;;;;;20.38;39.83;97208.63;4947102;28;20035;-74
2021/06/03 07:15:23;;;;;;;5.35;4.80;;;;;;;21.04;40.35;97295.88;4946422;28;20093;-66
2021/06/03 07:17:49;;;;;;;7.32;4.25;;;;;;;21.57;38.49;97337.84;4946225;29;20134;-73
2021/06/03 07:20:19;;;;;;;7.00;4.78;;;;;;;21.60;38.80;97372.81;4945737;28;20513;-74
2021/06/03 07:22:47;;;;;;;7.32;4.65;;;;;;;21.78;38.15;97345.84;4962044;28;20356;-60
2021/06/03 07:25:14;;;;;;;6.35;5.38;;;;;;;21.09;40.04;97319.94;4964996;28;20082;-62
2021/06/03 07:27:41;;;;;;;10.00;6.00;;;;;;;20.05;39.60;97172.25;4962732;28;20042;-75
2021/06/03 07:30:09;;;;;;;5.93;5.43;;;;;;;21.49;39.42;97347.69;4965886;28;20140;-77
2021/06/03 07:32:35;;;;;;;8.93;6.15;;;;;;;21.88;39.12;97350.47;4964339;28;20552;-60
2021/06/03 07:35:01;;;;;;;6.63;5.15;;;;;;;20.92;39.00;97249.41;4965840;28;20042;-65
2021/06/03 07:37:28;;;;;;;8.65;4.63;;;;;;;21.11;39.17;97365.38;4962403;28;20422;-61
2021/06/03 07:39:55;;;;;;;5.97;4.82;;;;;;;21.34;39.62;97365.31;4957398;28;20027;-70
2021/06/03 07:42:21;;;;;;;10.27;4.90;;;;;;;21.18;37.80;97295.59;4963985;28;20058;-74
2021/06/03 07:44:47;;;;;;;7.82;4.50;;;;;;;21.70;38.68;97361.34;4964498;28;20073;-62
2021/06/03 07:47:13;;;;;;;8.95;5.00;;;;;;;20.61;38.10;97213.44;4963430;28;20062;-60
2021/06/03 07:49:39;;;;;;;7.30;4.97;;;;;;;21.68;37.76;97358.16;4962467;28;20077;-69
2021/06/03 07:52:05;;;;;;;6.43;4.95;;;;;;;20.85;37.01;97277.69;4962150;28;20043;-59
2021/06/03 07:54:31;;;;;;;6.93;4.63;;;;;;;20.86;36.60;97332.81;4957859;28;20038;-61
2021/06/03 07:56:57;;;;;;;5.13;4.68;;;;;;;20.60;37.08;97287.84;4964099;28;20465;-58
2021/06/03 07:59:23;;;;;;;5.97;4.45;;;;;;;21.36;37.95;97377.75;4965400;28;20035;-61
2021/06/03 08:01:48;;;;;;;6.13;4.35;;;;;;;21.73;35.83;97368.13;4964343;28;20034;-72
2021/06/03 08:04:14;;;;;;;4.97;4.57;;;;;;;21.58;35.76;97336.59;4978689;28;20101;-71
2021/06/03 08:06:39;;;;;;;5.68;5.00;;;;;;;22.08;36.04;97364.53;4963996;28;20101;-73
2021/06/03 08:09:05;;;;;;;4.88;4.38;;;;;;;21.43;36.32;97245.13;4964432;28;20467;-59
2021/06/03 08:11:31;;;;;;;8.45;5.18;;;;;;;22.45;34.95;97384.59;4963142;28;20214;-61
2021/06/03 08:13:57;;;;;;;5.90;5.30;;;;;;;22.18;35.12;97310.66;4962454;28;20552;-59
2021/06/03 08:16:22;;;;;;;6.05;5.53;;;;;;;22.86;35.23;97374.75;4962491;28;20039;-71
2021/06/03 08:18:48;;;;;;;6.07;5.38;;;;;;;23.03;34.73;97368.59;4965714;28;20552;-58
2021/06/03 08:21:13;;;;;;;6.72;5.72;;;;;;;23.25;34.70;97335.72;4965667;28;20130;-58
2021/06/03 08:23:39;;;;;;;8.88;7.97;;;;;;;23.88;34.58;97372.69;4965877;28;20034;-70
2021/06/03 08:26:04;;;;;;;6.03;5.53;;;;;;;23.15;33.99;97375.56;4964056;28;20034;-71
2021/06/03 08:28:30;;;;;;;5.85;5.45;;;;;;;22.19;35.79;97376.38;4965296;28;20031;-70
2021/06/03 08:30:58;;;;;;;6.22;5.38;;;;;;;22.69;35.97;97371.13;4963524;28;20572;-58
2021/06/03 08:33:25;;;;;;;10.35;5.30;;;;;;;22.67;36.15;97375.66;4963645;28;20043;-59
2021/06/03 08:35:50;;;;;;;6.10;5.32;;;;;;;22.82;35.94;97379.69;4965006;28;20418;-62
2021/06/03 08:38:16;;;;;;;9.02;7.00;;;;;;;23.41;35.47;97371.66;4963730;28;20141;-58
2021/06/03 08:40:51;;;;;;;5.60;5.20;;;;;;;23.43;35.09;97369.16;4965243;28;20093;-70
2021/06/03 08:43:17;;;;;;;5.80;5.32;;;;;;;23.22;34.12;97316.81;4965708;28;20062;-61
2021/06/03 08:45:44;;;;;;;8.75;5.65;;;;;;;23.73;34.06;97389.28;4945500;28;20042;-60
2021/06/03 08:48:11;;;;;;;7.90;5.40;;;;;;;23.36;34.90;97386.34;4945595;29;20045;-60
2021/06/03 08:50:43;;;;;;;5.80;5.28;;;;;;;23.23;35.79;97355.16;4945543;29;20126;-60
2021/06/03 08:53:08;;;;;;;6.00;5.50;;;;;;;23.13;35.25;97304.56;4945868;29;20046;-60
2021/06/03 08:58:21;;;;;;;6.55;5.90;;;;;;;22.53;34.61;97271.50;4984346;28;20037;-66
2021/06/03 09:00:48;;;;;;;6.20;5.45;;;;;;;22.99;37.40;97441.41;4983211;28;20636;-60
2021/06/03 09:03:15;;;;;;;6.38;5.78;;;;;;;23.13;35.12;97315.84;4984328;28;20132;-69
2021/06/03 09:05:41;;;;;;;6.10;5.60;;;;;;;23.82;35.62;97402.78;4984164;28;20069;-69
2021/06/03 09:08:19;;;;;;;6.88;6.25;;;;;;;23.96;34.58;97401.56;4984357;28;20144;-60
2021/06/03 09:10:48;;;;;;;6.57;5.43;;;;;;;23.90;33.77;97392.81;4983952;28;20048;-69
2021/06/03 09:13:20;;;;;;;6.15;5.60;;;;;;;24.16;33.30;97394.50;4984209;28;20062;-68
2021/06/03 09:15:51;;;;;;;9.63;6.15;;;;;;;23.29;36.88;97409.94;4984034;28;20053;-60
2021/06/03 09:18:25;;;;;;;7.63;6.18;;;;;;;23.27;37.71;97392.63;4982551;28;20058;-69
2021/06/03 09:20:51;;;;;;;8.05;7.28;;;;;;;23.04;38.48;97397.69;4982259;28;20062;-69
2021/06/03 09:23:31;;;;;;;6.78;6.18;;;;;;;22.87;38.49;97393.28;4984027;28;20093;-59
2021/06/03 09:25:59;;;;;;;6.55;5.70;;;;;;;22.61;37.96;97368.91;4982488;28;20038;-62
2021/06/03 09:28:27;;;;;;;5.85;5.45;;;;;;;23.79;34.30;97392.34;4985113;28;20031;-61
2021/06/03 09:30:56;;;;;;;6.50;5.97;;;;;;;23.95;33.37;97395.09;4984337;28;20078;-61
2021/06/03 09:33:38;;;;;;;6.72;6.10;;;;;;;23.09;35.50;97286.91;4984466;28;20096;-68
2021/06/03 09:36:04;;;;;;;7.40;6.35;;;;;;;22.72;37.32;97403.34;4984030;28;20045;-61
2021/06/03 09:38:30;;;;;;;8.90;6.40;;;;;;;21.40;38.95;97302.38;4983166;28;20069;-69
2021/06/03 09:40:56;;;;;;;8.00;7.22;;;;;;;21.85;40.85;97379.56;4983078;28;20038;-69
2021/06/03 09:43:23;;;;;;;7.05;6.00;;;;;;;22.36;40.24;97398.56;4982204;28;20037;-70
2021/06/03 09:46:01;;;;;;;8.57;5.70;;;;;;;22.43;39.88;97392.72;4963219;28;20031;-69
2021/06/03 09:48:46;;;;;;;6.97;6.28;;;;;;;22.40;39.69;97331.47;4963720;28;20035;-68
2021/06/03 09:51:26;;;;;;;11.63;6.70;;;;;;;23.05;39.22;97399.25;4963416;28;20073;-69
2021/06/03 09:57:14;;;;;;;6.57;5.97;;;;;;;21.69;40.55;97404.84;4983062;28;20120;-61
2021/06/03 09:59:44;;;;;;;8.68;5.60;;;;;;;22.25;40.20;97366.97;4982684;28;20232;-70
2021/06/03 10:02:11;;;;;;;9.40;6.13;;;;;;;22.06;40.93;97361.34;4982978;28;20045;-62
2021/06/03 10:04:48;;;;;;;9.98;6.95;;;;;;;22.82;38.70;97391.78;4983157;28;20037;-71
2021/06/03 10:07:23;;;;;;;9.98;6.05;;;;;;;22.96;38.16;97413.22;4982273;28;20181;-62
2021/06/03 10:10:02;;;;;;;6.30;5.85;;;;;;;23.14;37.65;97396.59;4966641;28;20074;-61
2021/06/03 10:12:37;;;;;;;6.82;6.20;;;;;;;21.15;40.75;97244.94;4945731;28;20046;-62
2021/06/03 10:15:14;;;;;;;6.15;5.55;;;;;;;21.90;41.21;97387.50;4964100;28;20043;-67
2021/06/03 10:17:51;;;;;;;5.65;5.25;;;;;;;22.84;38.19;97399.81;4967008;28;20120;-64
2021/06/03 10:20:21;;;;;;;6.63;5.60;;;;;;;23.39;37.62;97402.41;4964385;28;20034;-66
2021/06/03 10:22:52;;;;;;;8.55;5.75;;;;;;;23.44;37.73;97390.56;4966952;28;20039;-66
2021/06/03 10:25:24;;;;;;;7.22;6.57;;;;;;;22.64;38.29;97396.28;4964557;28;20039;-73
2021/06/03 10:28:08;;;;;;;8.85;6.78;;;;;;;22.34;39.29;97394.56;4967171;28;20465;-61
2021/06/03 10:30:33;;;;;;;;;;;;;;;23.41;38.24;97388.63;4967045;28;20513;-67
2021/06/03 10:33:03;;;;;;;6.15;5.57;;;;;;;23.32;36.60;97351.69;4967174;28;19930;-63
2021/06/03 10:35:32;;;;;;;7.22;6.07;;;;;;;23.15;37.32;97319.03;4963076;28;20035;-69
2021/06/03 10:37:59;;;;;;;6.65;6.05;;;;;;;22.48;39.83;97395.03;4965604;28;20540;-71
2021/06/03 10:40:30;;;;;;;7.93;5.95;;;;;;;23.27;39.84;97391.81;4966974;28;20050;-61
2021/06/03 10:42:57;;;;;;;6.97;6.28;;;;;;;22.84;37.16;97264.22;4966464;28;20403;-69
2021/06/03 10:45:24;;;;;;;9.40;6.68;;;;;;;23.88;38.48;97384.78;4963883;28;20062;-72
2021/06/03 10:47:50;;;;;;;8.20;7.45;;;;;;;23.52;38.14;97338.22;4964839;28;20386;-71
2021/06/03 10:50:41;;;;;;;5.63;5.22;;;;;;;22.29;39.01;97432.56;4965409;28;20031;-60
2021/06/03 10:53:09;;;;;;;7.68;6.25;;;;;;;23.41;36.36;97422.56;4960732;28;20047;-71
2021/06/03 10:55:41;;;;;;;9.10;7.90;;;;;;;24.02;37.78;97380.78;4952348;28;20042;-59
2021/06/03 10:58:09;;;;;;;7.97;7.18;;;;;;;22.79;37.99;97389.06;4966106;28;20074;-59
2021/06/03 11:00:44;;;;;;;8.23;6.18;;;;;;;22.84;37.46;97382.88;4965695;28;20043;-74
2021/06/03 11:03:15;;;;;;;6.85;6.20;;;;;;;23.36;38.56;97389.16;4962804;28;20516;-69
2021/06/03 11:05:42;;;;;;;9.57;6.70;;;;;;;23.32;36.98;97334.72;4963949;28;20026;-74
2021/06/03 11:08:56;;;;;;;7.43;6.82;;;;;;;22.85;36.78;97316.63;4965818;28;20482;-72
2021/06/03 11:11:23;;;;;;;6.05;5.65;;;;;;;23.20;37.08;97389.16;4974036;28;20055;-68
2021/06/03 11:13:49;;;;;;;7.05;6.45;;;;;;;23.37;38.79;97388.72;4966939;28;20089;-62
2021/06/03 11:16:15;;;;;;;7.05;5.85;;;;;;;23.72;35.65;97392.56;4966597;28;20034;-68
2021/06/03 11:18:47;;;;;;;7.10;5.43;;;;;;;23.45;36.45;97383.66;4966155;28;20055;-70
2021/06/03 11:21:30;;;;;;;8.35;5.78;;;;;;;22.83;37.17;97381.25;4997370;28;20047;-70
2021/06/03 11:24:00;;;;;;;8.77;7.18;;;;;;;22.96;38.60;97397.06;4964907;28;20114;-60
2021/06/03 11:26:38;;;;;;;5.95;5.45;;;;;;;22.27;38.51;97389.88;4964932;28;20066;-69
2021/06/03 11:29:09;;;;;;;9.60;6.85;;;;;;;21.73;39.97;97345.56;4964420;28;20038;-71
2021/06/03 11:31:36;;;;;;;8.70;5.80;;;;;;;22.86;38.68;97403.00;4964816;28;20483;-69
2021/06/03 11:34:04;;;;;;;6.60;5.60;;;;;;;23.16;37.45;97388.47;4965100;28;20035;-71
2021/06/03 11:36:31;;;;;;;7.28;6.55;;;;;;;22.68;38.58;97385.69;4963763;28;20265;-71
2021/06/03 11:38:56;;;;;;;9.90;7.72;;;;;;;22.38;39.06;97378.34;4963910;28;20035;-70
2021/06/03 11:41:39;;;;;;;7.00;5.55;;;;;;;21.91;38.44;97388.28;4965942;28;20054;-70
2021/06/03 11:44:10;;;;;;;6.10;5.50;;;;;;;21.56;40.16;97387.00;4966366;28;20221;-71